Time;durP1;ratioP1;P1;durP2;ratioP2;P2;SDS_P1;SDS_P2;PMS_P1;PMS_P2;Temp;Humidity;BMP_temperature;BMP_pressure;BME280_temperature;BME280_humidity;BME280_pressure;Samples;Min_cycle;Max_cycle;Signal;HPM_P1;HPM_P2
2023/06/02 00:01:02;;;;;;;19.38;8.70;;;;;;;;;;6304191;28;20052;-47
2023/06/02 00:04:17;;;;;;;22.27;9.38;;;;;;;;;;6298916;28;20475;-46
2023/06/02 00:07:18;;;;;;;17.15;9.10;;;;;;;;;;6300362;28;20048;-48
2023/06/02 00:10:19;;;;;;;18.15;9.25;;;;;;;;;;6304318;28;20449;-48
2023/06/02 00:13:20;;;;;;;20.45;8.88;;;;;;;;;;6310285;28;20063;-46
2023/06/02 00:16:21;;;;;;;18.55;9.48;;;;;;;;;;6310194;28;20050;-48
2023/06/02 00:19:23;;;;;;;17.67;9.27;;;;;;;;;;6306060;28;20040;-45
2023/06/02 00:22:29;;;;;;;22.17;9.57;;;;;;;;;;6304485;28;20065;-48
2023/06/02 00:25:30;;;;;;;18.40;9.38;;;;;;;;;;6305182;28;20032;-47
2023/06/02 00:28:30;;;;;;;19.73;9.83;;;;;;;;;;6304437;28;20051;-48
2023/06/02 00:31:31;;;;;;;23.85;9.68;;;;;;;;;;6310220;28;20301;-46
2023/06/02 00:34:32;;;;;;;21.98;10.02;;;;;;;;;;6306788;28;20097;-47
2023/06/02 00:37:32;;;;;;;22.60;10.55;;;;;;;;;;6306767;28;20403;-47
2023/06/02 00:40:33;;;;;;;20.40;9.70;;;;;;;;;;6306403;28;20051;-47
2023/06/02 00:43:34;;;;;;;23.42;10.02;;;;;;;;;;6296910;28;20040;-52
2023/06/02 00:46:34;;;;;;;21.73;10.10;;;;;;;;;;6295421;28;20406;-59
2023/06/02 00:49:35;;;;;;;22.00;10.20;;;;;;;;;;6292360;28;20047;-58
2023/06/02 00:52:36;;;;;;;21.08;9.85;;;;;;;;;;6297880;28;20059;-59
2023/06/02 00:55:36;;;;;;;19.05;9.88;;;;;;;;;;6299295;28;20450;-54
2023/06/02 00:58:38;;;;;;;19.75;9.43;;;;;;;;;;6301285;28;20143;-47
2023/06/02 01:01:39;;;;;;;20.85;9.60;;;;;;;;;;6294648;28;20055;-47
2023/06/02 01:04:46;;;;;;;19.67;9.73;;;;;;;;;;6293608;28;20055;-47
2023/06/02 01:07:51;;;;;;;22.83;10.27;;;;;;;;;;6297419;28;20040;-47
2023/06/02 01:10:52;;;;;;;19.58;9.40;;;;;;;;;;6296897;28;20052;-50
2023/06/02 01:13:53;;;;;;;19.47;9.93;;;;;;;;;;6294915;28;20048;-48
2023/06/02 01:16:54;;;;;;;20.35;10.05;;;;;;;;;;6293733;28;20044;-49
2023/06/02 01:19:56;;;;;;;19.15;9.68;;;;;;;;;;6295137;28;20043;-47
2023/06/02 01:23:05;;;;;;;18.50;10.13;;;;;;;;;;6298747;28;20040;-47
2023/06/02 01:26:05;;;;;;;23.08;9.95;;;;;;;;;;6297242;28;20053;-47
2023/06/02 01:29:07;;;;;;;19.92;10.13;;;;;;;;;;6300457;28;20516;-46
2023/06/02 01:32:18;;;;;;;19.15;10.13;;;;;;;;;;6307711;28;20567;-47
2023/06/02 01:35:21;;;;;;;19.33;9.50;;;;;;;;;;6300432;28;20062;-47
2023/06/02 01:38:24;;;;;;;19.75;9.93;;;;;;;;;;6307904;28;20055;-47
2023/06/02 01:41:27;;;;;;;20.35;9.95;;;;;;;;;;6306333;28;20092;-47
2023/06/02 01:44:27;;;;;;;18.30;9.23;;;;;;;;;;6309054;28;20052;-47
2023/06/02 01:47:28;;;;;;;22.05;10.15;;;;;;;;;;6306319;28;20134;-48
2023/06/02 01:50:29;;;;;;;21.38;10.10;;;;;;;;;;6303043;28;20128;-47
2023/06/02 01:53:30;;;;;;;19.92;9.77;;;;;;;;;;6307330;28;20127;-48
2023/06/02 01:56:30;;;;;;;23.15;10.35;;;;;;;;;;6308504;28;20040;-48
2023/06/02 01:59:31;;;;;;;20.75;9.65;;;;;;;;;;6314924;28;20047;-49
2023/06/02 02:02:31;;;;;;;19.95;9.90;;;;;;;;;;6311827;28;20097;-47
2023/06/02 02:05:32;;;;;;;24.35;10.18;;;;;;;;;;6307633;28;20036;-48
2023/06/02 02:08:33;;;;;;;23.50;10.18;;;;;;;;;;6310011;28;20051;-49
2023/06/02 02:11:34;;;;;;;20.85;10.18;;;;;;;;;;6308190;28;20094;-46
2023/06/02 02:14:34;;;;;;;21.08;9.85;;;;;;;;;;6311428;28;20040;-47
2023/06/02 02:17:36;;;;;;;25.45;10.73;;;;;;;;;;6305338;28;20071;-47
2023/06/02 02:20:40;;;;;;;24.58;10.82;;;;;;;;;;6307902;28;20052;-50
2023/06/02 02:23:41;;;;;;;20.23;9.98;;;;;;;;;;6305207;28;20036;-46
2023/06/02 02:26:43;;;;;;;23.20;10.23;;;;;;;;;;6304686;28;20395;-46
2023/06/02 02:29:44;;;;;;;19.30;9.98;;;;;;;;;;6304214;28;20052;-51
2023/06/02 02:32:45;;;;;;;20.23;9.63;;;;;;;;;;6304561;28;20044;-47
2023/06/02 02:35:46;;;;;;;23.73;10.27;;;;;;;;;;6303866;28;20043;-46
2023/06/02 02:38:49;;;;;;;21.38;9.55;;;;;;;;;;6306205;28;20463;-46
2023/06/02 02:41:50;;;;;;;21.50;9.70;;;;;;;;;;6306120;28;20646;-46
2023/06/02 02:44:50;;;;;;;20.98;10.63;;;;;;;;;;6306272;28;20044;-48
2023/06/02 02:47:51;;;;;;;19.73;9.63;;;;;;;;;;6311841;28;20051;-48
2023/06/02 02:50:53;;;;;;;21.15;10.25;;;;;;;;;;6312411;28;20047;-49
2023/06/02 02:53:54;;;;;;;25.98;9.48;;;;;;;;;;6307024;28;20517;-46
2023/06/02 02:56:54;;;;;;;23.13;10.32;;;;;;;;;;6307525;28;20044;-46
2023/06/02 02:59:55;;;;;;;19.45;10.10;;;;;;;;;;6305637;28;20139;-48
2023/06/02 03:02:56;;;;;;;18.50;10.02;;;;;;;;;;6306010;28;20044;-46
2023/06/02 03:05:57;;;;;;;19.42;9.32;;;;;;;;;;6306769;28;20101;-47
2023/06/02 03:08:59;;;;;;;23.58;10.70;;;;;;;;;;6303713;28;20071;-48
2023/06/02 03:12:00;;;;;;;18.85;9.38;;;;;;;;;;6286069;28;20048;-46
2023/06/02 03:15:01;;;;;;;20.75;9.13;;;;;;;;;;6305998;28;20476;-48
2023/06/02 03:18:03;;;;;;;21.95;9.15;;;;;;;;;;6304132;28;20044;-47
2023/06/02 03:21:06;;;;;;;21.40;9.37;;;;;;;;;;6304334;28;20068;-50
2023/06/02 03:24:11;;;;;;;20.42;9.80;;;;;;;;;;6305740;28;20306;-47
2023/06/02 03:27:13;;;;;;;19.00;9.30;;;;;;;;;;6307320;28;20048;-48
2023/06/02 03:30:13;;;;;;;22.25;9.38;;;;;;;;;;6308544;28;20058;-47
2023/06/02 03:33:14;;;;;;;21.13;9.75;;;;;;;;;;6303375;28;20044;-47
2023/06/02 03:36:17;;;;;;;24.02;10.55;;;;;;;;;;6303845;28;20650;-48
2023/06/02 03:39:18;;;;;;;21.50;9.82;;;;;;;;;;6305172;28;20047;-48
2023/06/02 03:42:19;;;;;;;23.10;9.80;;;;;;;;;;6304489;28;20058;-48
2023/06/02 03:45:19;;;;;;;21.67;9.95;;;;;;;;;;6306948;28;20047;-47
2023/06/02 03:48:20;;;;;;;23.25;9.77;;;;;;;;;;6300850;28;20044;-47
2023/06/02 03:51:20;;;;;;;23.80;10.68;;;;;;;;;;6301905;28;20106;-45
2023/06/02 03:54:21;;;;;;;26.38;11.25;;;;;;;;;;6303037;28;20047;-50
2023/06/02 03:57:22;;;;;;;22.85;11.40;;;;;;;;;;6305124;28;20475;-50
2023/06/02 04:00:23;;;;;;;26.25;11.13;;;;;;;;;;6311139;28;20479;-48
2023/06/02 04:03:23;;;;;;;17.45;9.68;;;;;;;;;;6301896;28;20356;-48
2023/06/02 04:06:25;;;;;;;22.35;10.63;;;;;;;;;;6307828;28;20036;-48
2023/06/02 04:09:26;;;;;;;21.00;10.35;;;;;;;;;;6310704;28;20043;-46
2023/06/02 04:12:26;;;;;;;20.45;9.50;;;;;;;;;;6306428;28;20077;-51
2023/06/02 04:15:27;;;;;;;18.35;9.93;;;;;;;;;;6308059;28;20427;-50
2023/06/02 04:18:30;;;;;;;20.65;9.75;;;;;;;;;;6308623;28;20495;-47
2023/06/02 04:21:30;;;;;;;18.50;9.23;;;;;;;;;;6304915;28;20044;-47
2023/06/02 04:24:31;;;;;;;22.83;9.05;;;;;;;;;;6309579;28;20093;-47
2023/06/02 04:27:31;;;;;;;18.77;9.55;;;;;;;;;;6310418;28;20047;-48
2023/06/02 04:30:32;;;;;;;20.05;9.20;;;;;;;;;;6308019;28;20048;-47
2023/06/02 04:33:33;;;;;;;19.30;9.10;;;;;;;;;;6310009;28;20040;-48
2023/06/02 04:36:36;;;;;;;22.55;9.18;;;;;;;;;;6306502;28;20148;-48
2023/06/02 04:39:37;;;;;;;18.42;9.68;;;;;;;;;;6440208;22;20169;-54
2023/06/02 04:42:38;;;;;;;24.58;10.25;;;;;;;;;;6217901;28;20095;-47
2023/06/02 04:45:43;;;;;;;19.35;9.25;;;;;;;;;;6218661;28;20050;-50
2023/06/02 04:48:43;;;;;;;20.60;9.88;;;;;;;;;;6224373;28;20052;-56
2023/06/02 04:51:44;;;;;;;22.83;10.38;;;;;;;;;;6218081;28;20045;-59
2023/06/02 04:54:45;;;;;;;19.70;10.13;;;;;;;;;;6227152;28;20132;-55
2023/06/02 04:57:46;;;;;;;23.63;9.18;;;;;;;;;;6230313;28;20045;-46
2023/06/02 05:00:47;;;;;;;22.48;9.45;;;;;;;;;;6219989;28;20052;-53
2023/06/02 05:03:48;;;;;;;20.65;9.18;;;;;;;;;;6219562;28;21422;-52
2023/06/02 05:06:48;;;;;;;26.05;10.20;;;;;;;;;;6216758;28;20050;-55
2023/06/02 05:09:49;;;;;;;27.15;11.10;;;;;;;;;;6230860;28;20056;-60
2023/06/02 05:12:52;;;;;;;24.50;10.52;;;;;;;;;;6230526;28;20369;-55
2023/06/02 05:15:52;;;;;;;31.25;10.63;;;;;;;;;;6222304;28;20073;-54
2023/06/02 05:18:53;;;;;;;29.85;12.80;;;;;;;;;;6217853;28;20440;-57
2023/06/02 05:21:54;;;;;;;30.75;14.80;;;;;;;;;;6214407;28;20046;-60
2023/06/02 05:24:54;;;;;;;29.05;15.30;;;;;;;;;;6218339;28;20128;-51
2023/06/02 05:27:55;;;;;;;32.35;14.10;;;;;;;;;;6219171;28;20049;-61
2023/06/02 05:30:56;;;;;;;22.75;11.95;;;;;;;;;;6227106;28;20152;-56
2023/06/02 05:33:56;;;;;;;26.08;9.75;;;;;;;;;;6219140;28;20046;-60
2023/06/02 05:36:57;;;;;;;19.08;9.75;;;;;;;;;;6222353;28;20125;-56
2023/06/02 05:39:57;;;;;;;23.05;9.40;;;;;;;;;;6219884;28;20041;-59
2023/06/02 05:42:58;;;;;;;20.75;9.13;;;;;;;;;;6216848;28;20183;-50
2023/06/02 05:45:58;;;;;;;24.73;9.55;;;;;;;;;;6219423;28;20482;-54
2023/06/02 05:48:59;;;;;;;21.58;9.82;;;;;;;;;;6218507;28;20448;-48
2023/06/02 05:52:00;;;;;;;21.25;9.57;;;;;;;;;;6218651;28;20041;-50
2023/06/02 05:55:00;;;;;;;24.20;9.73;;;;;;;;;;6217476;28;20434;-49
2023/06/02 05:58:01;;;;;;;24.10;9.82;;;;;;;;;;6217853;28;20042;-47
2023/06/02 06:01:02;;;;;;;28.95;10.25;;;;;;;;;;6214569;28;20189;-51
2023/06/02 06:04:02;;;;;;;25.67;11.48;;;;;;;;;;6217629;28;20430;-54
2023/06/02 06:07:03;;;;;;;25.30;10.55;;;;;;;;;;6218930;28;20050;-47
2023/06/02 06:10:04;;;;;;;27.83;12.13;;;;;;;;;;6218087;28;20052;-56
2023/06/02 06:13:05;;;;;;;23.40;11.00;;;;;;;;;;6213743;28;20058;-56
2023/06/02 06:16:05;;;;;;;24.73;11.52;;;;;;;;;;6220369;28;20415;-60
2023/06/02 06:19:06;;;;;;;25.08;10.35;;;;;;;;;;6219072;28;20111;-49
2023/06/02 06:22:07;;;;;;;24.50;10.30;;;;;;;;;;6219507;28;20583;-57
2023/06/02 06:25:08;;;;;;;20.63;9.10;;;;;;;;;;6221299;28;20072;-58
2023/06/02 06:28:09;;;;;;;17.70;7.78;;;;;;;;;;6217659;28;20053;-59
2023/06/02 06:31:09;;;;;;;21.02;7.82;;;;;;;;;;6214695;28;20184;-51
2023/06/02 06:34:10;;;;;;;16.17;7.72;;;;;;;;;;6220452;28;20050;-51
2023/06/02 06:37:11;;;;;;;21.10;8.70;;;;;;;;;;6218696;28;20064;-58
2023/06/02 06:40:11;;;;;;;20.05;8.52;;;;;;;;;;6219036;28;20053;-48
2023/06/02 06:43:15;;;;;;;19.20;8.27;;;;;;;;;;6218121;28;21293;-58
2023/06/02 06:46:16;;;;;;;20.48;8.52;;;;;;;;;;6218127;28;20045;-60
2023/06/02 06:49:17;;;;;;;13.95;7.18;;;;;;;;;;6219258;28;20072;-57
2023/06/02 06:52:17;;;;;;;21.53;7.40;;;;;;;;;;6215445;28;20038;-59
2023/06/02 06:55:18;;;;;;;19.43;7.57;;;;;;;;;;6218250;28;20045;-60
2023/06/02 06:58:18;;;;;;;23.13;8.02;;;;;;;;;;6214781;28;20061;-59
2023/06/02 07:01:19;;;;;;;15.98;6.43;;;;;;;;;;6214714;28;20137;-56
2023/06/02 07:04:20;;;;;;;13.80;6.17;;;;;;;;;;6218902;28;20500;-56
2023/06/02 07:07:21;;;;;;;11.83;5.53;;;;;;;;;;6219356;28;20045;-52
2023/06/02 07:10:21;;;;;;;14.10;6.33;;;;;;;;;;6215509;28;20042;-56
2023/06/02 07:13:25;;;;;;;13.75;5.80;;;;;;;;;;6219183;28;20068;-53
2023/06/02 07:16:25;;;;;;;14.32;6.25;;;;;;;;;;6220257;28;20049;-59
2023/06/02 07:19:26;;;;;;;12.82;5.95;;;;;;;;;;6218221;28;20534;-56
2023/06/02 07:22:27;;;;;;;14.88;5.90;;;;;;;;;;6218396;28;20034;-52
2023/06/02 07:25:27;;;;;;;17.43;6.70;;;;;;;;;;6219269;28;20044;-55
2023/06/02 07:28:28;;;;;;;12.40;5.77;;;;;;;;;;6217224;28;20050;-55
2023/06/02 07:31:29;;;;;;;24.15;7.65;;;;;;;;;;6216929;28;20038;-56
2023/06/02 07:34:29;;;;;;;12.95;6.50;;;;;;;;;;6219413;28;20882;-54
2023/06/02 07:37:30;;;;;;;13.73;6.10;;;;;;;;;;6218896;28;20045;-60
2023/06/02 07:40:30;;;;;;;16.53;6.77;;;;;;;;;;6219286;28;20403;-49
2023/06/02 07:43:31;;;;;;;15.77;7.20;;;;;;;;;;6224112;28;20065;-54
2023/06/02 07:46:32;;;;;;;14.93;6.87;;;;;;;;;;6225746;28;20057;-48
2023/06/02 07:49:34;;;;;;;14.40;6.90;;;;;;;;;;6222151;28;20243;-55
2023/06/02 07:52:34;;;;;;;13.73;6.13;;;;;;;;;;6223104;28;20061;-49
2023/06/02 07:55:36;;;;;;;17.98;7.15;;;;;;;;;;6225207;28;20041;-61
2023/06/02 07:58:36;;;;;;;14.23;7.25;;;;;;;;;;6224729;28;20057;-57
2023/06/02 08:01:38;;;;;;;14.07;6.90;;;;;;;;;;6223731;28;20073;-55
2023/06/02 08:04:38;;;;;;;14.48;6.85;;;;;;;;;;6221035;28;20070;-53
2023/06/02 08:07:40;;;;;;;15.60;7.77;;;;;;;;;;6223023;28;20045;-61
2023/06/02 08:10:40;;;;;;;16.97;7.67;;;;;;;;;;6222545;28;20195;-59
2023/06/02 08:13:41;;;;;;;14.40;7.93;;;;;;;;;;6223375;28;20498;-59
2023/06/02 08:16:41;;;;;;;13.88;7.32;;;;;;;;;;6223255;28;20500;-58
2023/06/02 08:19:42;;;;;;;19.40;8.23;;;;;;;;;;6224282;28;20045;-57
2023/06/02 08:22:44;;;;;;;19.70;8.40;;;;;;;;;;6220760;28;20049;-57
2023/06/02 08:25:45;;;;;;;15.27;6.95;;;;;;;;;;6223297;28;20132;-58
2023/06/02 08:28:49;;;;;;;18.03;7.93;;;;;;;;;;6222884;28;20043;-60
2023/06/02 08:31:51;;;;;;;17.85;7.97;;;;;;;;;;6220902;28;20045;-56
2023/06/02 08:34:56;;;;;;;18.42;7.72;;;;;;;;;;6223929;28;20133;-57
2023/06/02 08:37:57;;;;;;;17.58;7.60;;;;;;;;;;6224444;28;20121;-61
2023/06/02 08:40:57;;;;;;;16.60;7.43;;;;;;;;;;6224847;28;20067;-61
2023/06/02 08:43:58;;;;;;;15.67;7.37;;;;;;;;;;6223112;28;20084;-53
2023/06/02 08:47:00;;;;;;;19.07;7.17;;;;;;;;;;6222385;28;20120;-58
2023/06/02 08:50:05;;;;;;;17.98;7.97;;;;;;;;;;6224241;28;20058;-51
2023/06/02 08:53:10;;;;;;;13.18;7.13;;;;;;;;;;6223042;28;20373;-54
2023/06/02 08:56:11;;;;;;;16.90;6.78;;;;;;;;;;6223684;28;20037;-53
2023/06/02 08:59:11;;;;;;;12.73;6.80;;;;;;;;;;6227916;28;20057;-57
2023/06/02 09:02:13;;;;;;;16.87;7.23;;;;;;;;;;6224577;28;20053;-50
2023/06/02 09:05:16;;;;;;;15.80;7.28;;;;;;;;;;6224667;28;20048;-58
2023/06/02 09:08:17;;;;;;;15.23;7.50;;;;;;;;;;6223910;28;20052;-56
2023/06/02 09:11:19;;;;;;;17.23;6.97;;;;;;;;;;6223411;28;20034;-58
2023/06/02 09:14:19;;;;;;;12.45;6.57;;;;;;;;;;6221114;28;20095;-48
2023/06/02 09:17:29;;;;;;;14.47;7.03;;;;;;;;;;6224453;28;20037;-51
2023/06/02 09:20:31;;;;;;;18.45;7.07;;;;;;;;;;6223249;28;20487;-61
2023/06/02 09:23:45;;;;;;;15.60;6.60;;;;;;;;;;6220354;28;20052;-53
2023/06/02 09:26:51;;;;;;;14.65;6.43;;;;;;;;;;6220435;28;20178;-47
2023/06/02 09:29:59;;;;;;;14.60;6.60;;;;;;;;;;6222503;28;20567;-61
2023/06/02 09:33:06;;;;;;;10.50;5.88;;;;;;;;;;6219723;28;20054;-58
2023/06/02 09:36:22;;;;;;;15.68;5.80;;;;;;;;;;6221583;28;20870;-60
2023/06/02 09:39:33;;;;;;;11.13;5.70;;;;;;;;;;6222725;28;20041;-59
2023/06/02 09:42:43;;;;;;;12.70;5.32;;;;;;;;;;6220955;28;21783;-59
2023/06/02 09:45:47;;;;;;;17.67;5.95;;;;;;;;;;6220741;28;20548;-57
2023/06/02 09:48:59;;;;;;;11.98;5.95;;;;;;;;;;6238519;28;20130;-61
2023/06/02 09:52:16;;;;;;;13.38;5.15;;;;;;;;;;6225552;28;20145;-61
2023/06/02 09:55:17;;;;;;;11.80;5.38;;;;;;;;;;6223371;28;20096;-59
2023/06/02 09:58:18;;;;;;;13.00;5.68;;;;;;;;;;6223345;28;20042;-60
2023/06/02 10:01:20;;;;;;;13.23;5.47;;;;;;;;;;6230027;28;20053;-60
2023/06/02 10:04:20;;;;;;;14.30;6.20;;;;;;;;;;6220520;28;20132;-48
2023/06/02 10:07:46;;;;;;;17.37;6.20;;;;;;;;;;6222219;28;20520;-60
2023/06/02 10:11:05;;;;;;;12.85;5.97;;;;;;;;;;6219323;28;20065;-58
2023/06/02 10:14:24;;;;;;;13.52;5.63;;;;;;;;;;6222007;28;20045;-60
2023/06/02 10:17:34;;;;;;;12.23;5.78;;;;;;;;;;6220517;28;20056;-56
2023/06/02 10:21:00;;;;;;;13.32;5.82;;;;;;;;;;6219266;28;20503;-54
2023/06/02 10:24:18;;;;;;;14.73;5.65;;;;;;;;;;6218012;28;20902;-56
2023/06/02 10:27:30;;;;;;;16.85;5.90;;;;;;;;;;6207856;28;20522;-53
2023/06/02 10:30:33;;;;;;;13.23;5.38;;;;;;;;;;6211031;28;20076;-57
2023/06/02 10:33:47;;;;;;;11.43;5.43;;;;;;;;;;6214851;28;20056;-50
2023/06/02 10:37:00;;;;;;;11.25;5.72;;;;;;;;;;6212380;28;20046;-60
2023/06/02 10:40:00;;;;;;;11.38;5.15;;;;;;;;;;6222159;28;20547;-60
2023/06/02 10:43:13;;;;;;;9.33;4.87;;;;;;;;;;6226155;28;20057;-52
2023/06/02 10:46:21;;;;;;;10.98;5.30;;;;;;;;;;6228058;28;20049;-60
2023/06/02 10:49:57;;;;;;;13.85;5.03;;;;;;;;;;6228547;28;20507;-50
2023/06/02 10:53:00;;;;;;;17.67;5.32;;;;;;;;;;6230032;28;20058;-59
2023/06/02 10:56:35;;;;;;;11.13;5.50;;;;;;;;;;6228335;28;20056;-55
2023/06/02 10:59:36;;;;;;;14.32;5.47;;;;;;;;;;6231205;28;20053;-53
2023/06/02 11:02:45;;;;;;;14.57;5.50;;;;;;;;;;6224499;28;20125;-53
2023/06/02 11:05:48;;;;;;;14.65;5.55;;;;;;;;;;6227483;28;20045;-49
2023/06/02 11:08:51;;;;;;;13.30;5.25;;;;;;;;;;6232463;28;20407;-50
2023/06/02 11:11:53;;;;;;;10.90;5.28;;;;;;;;;;6229279;28;20049;-50
2023/06/02 11:15:12;;;;;;;10.80;5.40;;;;;;;;;;6237783;28;20629;-48
2023/06/02 11:18:35;;;;;;;12.48;5.32;;;;;;;;;;6231561;28;20046;-53
2023/06/02 11:21:36;;;;;;;10.75;5.55;;;;;;;;;;6229700;28;20216;-60
2023/06/02 11:24:37;;;;;;;11.30;4.97;;;;;;;;;;6228831;28;20890;-58
2023/06/02 11:27:44;;;;;;;10.90;4.85;;;;;;;;;;6225279;28;20083;-58
2023/06/02 11:30:45;;;;;;;13.65;5.18;;;;;;;;;;6228140;28;20053;-50
2023/06/02 11:33:51;;;;;;;12.18;5.07;;;;;;;;;;6228482;28;20042;-53
2023/06/02 11:36:54;;;;;;;15.90;5.72;;;;;;;;;;6226081;28;20471;-49
2023/06/02 11:39:55;;;;;;;14.30;5.40;;;;;;;;;;6240229;28;20103;-50
2023/06/02 11:42:56;;;;;;;10.27;5.28;;;;;;;;;;6255652;28;20122;-60
2023/06/02 11:46:10;;;;;;;18.67;6.17;;;;;;;;;;6250457;28;20045;-59
2023/06/02 11:49:10;;;;;;;14.80;5.20;;;;;;;;;;6254331;28;20044;-54
2023/06/02 11:52:11;;;;;;;11.63;5.80;;;;;;;;;;6234447;28;20045;-55
2023/06/02 11:55:12;;;;;;;11.83;5.27;;;;;;;;;;6252286;28;20068;-55
2023/06/02 11:58:20;;;;;;;13.03;5.17;;;;;;;;;;6253590;28;20190;-51
2023/06/02 12:01:21;;;;;;;9.95;5.28;;;;;;;;;;6253188;28;20506;-52
2023/06/02 12:04:22;;;;;;;13.35;5.07;;;;;;;;;;6256210;28;20047;-50
2023/06/02 12:07:29;;;;;;;13.10;5.40;;;;;;;;;;6250598;28;20049;-50
2023/06/02 12:10:31;;;;;;;16.45;5.85;;;;;;;;;;6252815;28;20125;-51
2023/06/02 12:13:32;;;;;;;10.98;5.05;;;;;;;;;;6255142;28;20056;-50
2023/06/02 12:16:42;;;;;;;13.80;4.85;;;;;;;;;;6249170;28;20064;-48
2023/06/02 12:19:42;;;;;;;15.55;5.00;;;;;;;;;;6253019;28;20048;-49
2023/06/02 12:22:55;;;;;;;11.77;5.10;;;;;;;;;;6256406;28;20041;-48
2023/06/02 12:25:59;;;;;;;10.93;4.82;;;;;;;;;;6254516;28;20055;-50
2023/06/02 12:28:59;;;;;;;13.80;6.07;;;;;;;;;;6256802;28;20490;-51
2023/06/02 12:32:07;;;;;;;14.23;4.77;;;;;;;;;;6256496;28;20052;-56
2023/06/02 12:35:08;;;;;;;14.10;5.18;;;;;;;;;;6256007;28;20122;-51
2023/06/02 12:38:09;;;;;;;10.20;5.20;;;;;;;;;;6255630;28;20037;-50
2023/06/02 12:41:12;;;;;;;12.90;5.33;;;;;;;;;;6257020;28;21521;-56
2023/06/02 12:44:13;;;;;;;11.05;5.10;;;;;;;;;;6255049;28;20133;-48
2023/06/02 12:47:14;;;;;;;12.10;4.97;;;;;;;;;;6258214;28;20045;-50
2023/06/02 12:50:15;;;;;;;12.57;4.90;;;;;;;;;;6253738;28;20068;-52
2023/06/02 12:53:15;;;;;;;11.30;4.80;;;;;;;;;;6256533;28;20059;-54
2023/06/02 12:56:16;;;;;;;11.23;4.63;;;;;;;;;;6260073;28;20051;-56
2023/06/02 12:59:17;;;;;;;10.88;4.22;;;;;;;;;;6256933;28;20419;-52
2023/06/02 13:02:18;;;;;;;12.60;4.80;;;;;;;;;;6258925;28;20056;-53
2023/06/02 13:05:19;;;;;;;10.13;4.83;;;;;;;;;;6257020;28;20278;-55
2023/06/02 13:08:19;;;;;;;12.10;5.17;;;;;;;;;;6257396;28;20122;-50
2023/06/02 13:11:21;;;;;;;12.93;4.87;;;;;;;;;;6257130;28;20045;-57
2023/06/02 13:14:22;;;;;;;11.15;4.75;;;;;;;;;;6257015;28;20131;-50
2023/06/02 13:17:23;;;;;;;12.60;4.70;;;;;;;;;;6257815;28;20051;-49
2023/06/02 13:20:23;;;;;;;12.07;4.30;;;;;;;;;;6253449;28;20227;-49
2023/06/02 13:23:24;;;;;;;13.57;4.40;;;;;;;;;;6257295;28;20053;-48
2023/06/02 13:26:26;;;;;;;10.27;4.77;;;;;;;;;;6258187;28;20048;-48
2023/06/02 13:29:27;;;;;;;12.27;4.78;;;;;;;;;;6256576;28;20049;-50
2023/06/02 13:32:27;;;;;;;10.70;4.67;;;;;;;;;;6255947;28;20059;-49
2023/06/02 13:35:28;;;;;;;11.87;4.67;;;;;;;;;;6254956;28;20738;-53
2023/06/02 13:38:30;;;;;;;;;;;;;;;;;;6255745;28;20048;-60
2023/06/02 13:41:30;;;;;;;16.13;5.20;;;;;;;;;;6255048;28;19968;-48
2023/06/02 13:44:31;;;;;;;9.75;4.63;;;;;;;;;;6260521;28;20037;-49
2023/06/02 13:47:32;;;;;;;10.13;4.37;;;;;;;;;;6254773;28;20055;-47
2023/06/02 13:50:32;;;;;;;11.83;4.37;;;;;;;;;;6257755;28;20041;-59
2023/06/02 13:53:33;;;;;;;9.07;4.00;;;;;;;;;;6255023;28;20396;-55
2023/06/02 13:56:33;;;;;;;12.90;4.30;;;;;;;;;;6256271;28;20651;-48
2023/06/02 13:59:34;;;;;;;14.00;4.37;;;;;;;;;;6255502;28;20560;-54
2023/06/02 14:02:35;;;;;;;12.07;5.33;;;;;;;;;;6257245;28;20778;-49
2023/06/02 14:05:35;;;;;;;15.03;4.37;;;;;;;;;;6256193;28;20033;-52
2023/06/02 14:08:36;;;;;;;12.70;5.00;;;;;;;;;;6253723;28;20129;-59
2023/06/02 14:11:38;;;;;;;15.33;4.87;;;;;;;;;;6258021;28;20144;-49
2023/06/02 14:14:38;;;;;;;14.43;4.95;;;;;;;;;;6256196;28;20072;-47
2023/06/02 14:17:39;;;;;;;11.60;4.67;;;;;;;;;;6255613;28;20055;-59
2023/06/02 14:20:41;;;;;;;10.20;4.63;;;;;;;;;;6251158;28;20187;-50
2023/06/02 14:23:42;;;;;;;9.77;4.80;;;;;;;;;;6255171;28;20458;-47
2023/06/02 14:26:43;;;;;;;11.32;4.50;;;;;;;;;;6255712;28;20052;-49
2023/06/02 14:29:44;;;;;;;10.30;4.67;;;;;;;;;;6252547;28;20044;-51
2023/06/02 14:32:44;;;;;;;10.87;4.70;;;;;;;;;;6257682;28;20052;-48
2023/06/02 14:35:45;;;;;;;10.27;4.47;;;;;;;;;;6252541;28;20053;-48
2023/06/02 14:38:45;;;;;;;12.33;5.53;;;;;;;;;;6254623;28;20056;-50
2023/06/02 14:41:46;;;;;;;13.70;5.60;;;;;;;;;;6253377;28;20037;-47
2023/06/02 14:44:47;;;;;;;13.77;5.07;;;;;;;;;;6260470;28;20149;-49
2023/06/02 14:47:48;;;;;;;9.70;5.47;;;;;;;;;;6254396;28;20052;-47
2023/06/02 14:50:49;;;;;;;14.23;5.43;;;;;;;;;;6255008;28;20057;-48
2023/06/02 14:53:51;;;;;;;16.75;5.80;;;;;;;;;;6253098;28;20080;-48
2023/06/02 14:56:51;;;;;;;13.98;6.38;;;;;;;;;;6254834;28;20048;-47
2023/06/02 14:59:52;;;;;;;13.52;5.95;;;;;;;;;;6255837;28;21145;-55
2023/06/02 15:02:52;;;;;;;11.57;5.70;;;;;;;;;;6258618;28;20094;-53
2023/06/02 15:05:54;;;;;;;15.10;5.87;;;;;;;;;;6255213;28;20056;-51
2023/06/02 15:08:55;;;;;;;12.85;5.78;;;;;;;;;;6255367;28;20628;-53
2023/06/02 15:11:56;;;;;;;11.20;5.83;;;;;;;;;;6253812;28;20056;-58
2023/06/02 15:14:57;;;;;;;10.80;5.55;;;;;;;;;;6237968;28;20048;-50
2023/06/02 15:17:58;;;;;;;9.70;6.10;;;;;;;;;;6252149;28;20044;-58
2023/06/02 15:20:59;;;;;;;11.33;5.50;;;;;;;;;;6253282;28;21557;-51
2023/06/02 15:24:00;;;;;;;12.17;5.77;;;;;;;;;;6255740;28;20059;-48
2023/06/02 15:27:00;;;;;;;13.03;5.97;;;;;;;;;;6261262;28;20053;-50
2023/06/02 15:30:02;;;;;;;13.57;5.20;;;;;;;;;;6257842;28;20044;-48
2023/06/02 15:33:02;;;;;;;;;;;;;;;;;;6260950;28;20152;-47
2023/06/02 15:36:03;;;;;;;15.10;5.32;;;;;;;;;;6260023;28;19929;-48
2023/06/02 15:39:04;;;;;;;12.57;5.30;;;;;;;;;;6262508;28;20056;-50
2023/06/02 15:42:06;;;;;;;12.80;5.13;;;;;;;;;;6263023;28;20405;-48
2023/06/02 15:45:08;;;;;;;14.82;5.55;;;;;;;;;;6260274;28;20820;-47
2023/06/02 15:48:09;;;;;;;11.05;5.15;;;;;;;;;;6265778;28;20055;-46
2023/06/02 15:51:09;;;;;;;10.83;5.30;;;;;;;;;;6267387;28;20502;-48
2023/06/02 15:54:10;;;;;;;11.33;4.47;;;;;;;;;;6269247;28;20041;-49
2023/06/02 15:57:10;;;;;;;10.80;4.30;;;;;;;;;;6265555;28;20118;-49
2023/06/02 16:00:12;;;;;;;9.20;4.30;;;;;;;;;;6265907;28;20188;-47
2023/06/02 16:03:12;;;;;;;11.27;4.73;;;;;;;;;;6271126;28;20048;-50
2023/06/02 16:06:13;;;;;;;10.17;4.87;;;;;;;;;;6249232;28;20496;-48
2023/06/02 16:09:13;;;;;;;9.87;4.60;;;;;;;;;;6270399;28;20037;-47
2023/06/02 16:12:14;;;;;;;11.27;4.67;;;;;;;;;;6273673;28;20490;-46
2023/06/02 16:15:15;;;;;;;9.47;4.70;;;;;;;;;;6267410;28;20040;-48
2023/06/02 16:18:16;;;;;;;12.37;4.70;;;;;;;;;;6265813;28;20392;-48
2023/06/02 16:21:16;;;;;;;10.27;5.10;;;;;;;;;;6273883;28;20098;-47
2023/06/02 16:24:17;;;;;;;14.90;4.67;;;;;;;;;;6267780;28;20080;-47
2023/06/02 16:27:18;;;;;;;10.90;5.25;;;;;;;;;;6248920;28;20664;-50
2023/06/02 16:30:20;;;;;;;13.30;5.25;;;;;;;;;;6266944;28;20176;-47
2023/06/02 16:33:21;;;;;;;;;;;;;;;;;;6273191;28;20186;-47
2023/06/02 16:36:22;;;;;;;11.60;5.03;;;;;;;;;;6264487;28;20415;-47
2023/06/02 16:39:22;;;;;;;10.35;4.80;;;;;;;;;;6251596;28;20085;-46
2023/06/02 16:42:23;;;;;;;16.40;5.40;;;;;;;;;;6220017;28;20041;-47
2023/06/02 16:45:23;;;;;;;15.15;5.60;;;;;;;;;;6213236;28;20133;-50
2023/06/02 16:48:24;;;;;;;11.68;5.50;;;;;;;;;;6217753;28;21389;-48
2023/06/02 16:51:28;;;;;;;15.57;5.82;;;;;;;;;;6220492;28;20154;-50
2023/06/02 16:54:29;;;;;;;10.77;5.90;;;;;;;;;;6218630;28;20045;-50
2023/06/02 16:57:29;;;;;;;12.30;5.55;;;;;;;;;;6217395;28;20053;-48
2023/06/02 17:00:30;;;;;;;11.85;6.03;;;;;;;;;;6218236;28;20054;-48
2023/06/02 17:03:31;;;;;;;13.27;6.05;;;;;;;;;;6220618;28;20049;-47
2023/06/02 17:06:32;;;;;;;14.38;5.97;;;;;;;;;;6213228;28;20049;-47
2023/06/02 17:09:32;;;;;;;13.15;5.32;;;;;;;;;;6211841;28;20077;-47
2023/06/02 17:12:33;;;;;;;15.95;6.38;;;;;;;;;;6215420;28;20058;-47
2023/06/02 17:15:33;;;;;;;14.88;6.13;;;;;;;;;;6212987;28;20076;-46
2023/06/02 17:18:34;;;;;;;18.58;7.07;;;;;;;;;;6213995;28;20037;-49
2023/06/02 17:21:35;;;;;;;16.00;6.65;;;;;;;;;;6215832;28;20049;-47
2023/06/02 17:24:36;;;;;;;13.80;6.88;;;;;;;;;;6219443;28;20037;-53
2023/06/02 17:27:37;;;;;;;16.17;6.68;;;;;;;;;;6215670;28;20057;-49
2023/06/02 17:30:38;;;;;;;15.20;6.83;;;;;;;;;;6213756;28;20156;-53
2023/06/02 17:33:39;;;;;;;13.68;6.85;;;;;;;;;;6215998;28;20678;-47
2023/06/02 17:36:41;;;;;;;19.13;7.13;;;;;;;;;;6215552;28;20045;-48
2023/06/02 17:39:42;;;;;;;;;;;;;;;;;;6217863;28;20112;-47
2023/06/02 17:42:43;;;;;;;13.45;6.68;;;;;;;;;;6217685;28;19933;-48
2023/06/02 17:45:44;;;;;;;13.93;7.20;;;;;;;;;;6216284;28;20052;-47
2023/06/02 17:48:45;;;;;;;12.00;5.97;;;;;;;;;;6210986;28;20065;-46
2023/06/02 17:51:46;;;;;;;14.13;6.88;;;;;;;;;;6210537;28;20441;-48
2023/06/02 17:54:47;;;;;;;11.40;5.55;;;;;;;;;;6207417;28;20920;-48